createdAt,value
2016-09-19T00:00:07.404Z,59.37
2016-09-19T00:01:17.689Z,59.66
2016-09-19T00:02:27.679Z,59.47
2016-09-19T00:03:37.985Z,59.66
2016-09-19T00:04:47.974Z,59.37
2016-09-19T00:05:58.274Z,59.17
2016-09-19T00:07:08.247Z,59.17
2016-09-19T00:08:18.224Z,59.17
2016-09-19T00:09:27.901Z,59.27
2016-09-19T00:10:38.182Z,59.27
2016-09-19T00:11:48.695Z,59.17
2016-09-19T00:12:58.981Z,59.27
2016-09-19T00:14:09.263Z,59.17
2016-09-19T00:15:19.238Z,59.08
2016-09-19T00:16:29.222Z,59.27
2016-09-19T00:17:39.530Z,59.47
2016-09-19T00:18:49.501Z,59.17
2016-09-19T00:19:59.782Z,59.27
2016-09-19T00:21:10.069Z,59.37
2016-09-19T00:22:19.744Z,59.37
2016-09-19T00:23:29.421Z,59.08
2016-09-19T00:24:39.712Z,59.15
2016-09-19T00:25:49.685Z,59.24
2016-09-19T00:26:59.667Z,59.15
2016-09-19T00:28:09.959Z,59.08
2016-09-19T00:29:19.625Z,59.34
2016-09-19T00:30:29.908Z,59.24
2016-09-19T00:31:39.884Z,59.24
2016-09-19T00:32:49.852Z,59.34
2016-09-19T00:34:00.147Z,59.34
2016-09-19T00:35:10.429Z,59.44
2016-09-19T00:36:20.405Z,59.24
2016-09-19T00:37:30.385Z,59.15
2016-09-19T00:38:40.659Z,59.34
2016-09-19T00:39:50.642Z,59.15
2016-09-19T00:41:00.926Z,59.05
2016-09-19T00:42:10.914Z,59.15
2016-09-19T00:43:21.206Z,59.44
2016-09-19T00:44:31.493Z,59.15
2016-09-19T00:45:41.794Z,59.24
2016-09-19T00:46:52.128Z,59.15
2016-09-19T00:48:01.798Z,59.63
2016-09-19T00:49:11.467Z,59.34
2016-09-19T00:50:21.137Z,59.63
2016-09-19T00:51:31.418Z,59.63
2016-09-19T00:52:41.700Z,59.44
2016-09-19T00:53:51.981Z,59.53
2016-09-19T00:55:01.967Z,59.53
2016-09-19T00:56:11.335Z,59.53
2016-09-19T00:57:21.631Z,59.44
2016-09-19T00:58:31.622Z,59.63
2016-09-19T00:59:41.929Z,59.63
2016-09-19T01:00:51.906Z,59.63
2016-09-19T01:02:01.899Z,59.24
2016-09-19T01:03:12.200Z,58.95
2016-09-19T01:04:22.482Z,59.63
2016-09-19T01:05:32.779Z,59.05
2016-09-19T01:06:43.064Z,59.24
2016-09-19T01:07:53.349Z,59.05
2016-09-19T01:09:03.678Z,59.24
2016-09-19T01:10:13.970Z,58.95
2016-09-19T01:11:24.256Z,59.05
2016-09-19T01:12:34.549Z,58.95
2016-09-19T01:13:44.523Z,59.34
2016-09-19T01:14:54.811Z,59.24
2016-09-19T01:16:05.103Z,59.24
2016-09-19T01:17:15.399Z,59.15
2016-09-19T01:18:25.711Z,59.15
2016-09-19T01:19:35.700Z,59.24
2016-09-19T01:20:45.681Z,59.15
2016-09-19T01:21:55.347Z,59.15
2016-09-19T01:23:05.322Z,59.05
2016-09-19T01:24:15.323Z,59.34
2016-09-19T01:25:25.308Z,59.05
2016-09-19T01:26:34.674Z,59.15
2016-09-19T01:27:44.350Z,59.24
2016-09-19T01:28:54.323Z,59.44
2016-09-19T01:30:04.616Z,59.15
2016-09-19T01:31:14.909Z,59.24
2016-09-19T01:32:25.214Z,59.63
2016-09-19T01:33:34.889Z,59.63
2016-09-19T01:34:45.204Z,59.72
2016-09-19T01:35:55.177Z,59.34
2016-09-19T01:37:05.483Z,59.63
2016-09-19T01:38:15.151Z,59.44
2016-09-19T01:39:25.126Z,59.44
2016-09-19T01:40:35.099Z,59.44
2016-09-19T01:41:44.772Z,59.44
2016-09-19T01:42:54.771Z,59.34
2016-09-19T01:44:05.056Z,59.34
2016-09-19T01:45:14.723Z,59.63
2016-09-19T01:46:24.705Z,59.72
2016-09-19T01:47:34.678Z,59.63
2016-09-19T01:48:44.657Z,59.63
2016-09-19T01:49:54.652Z,59.63
2016-09-19T01:51:04.946Z,59.72
2016-09-19T01:52:14.616Z,59.34
2016-09-19T01:53:24.888Z,59.63
2016-09-19T01:54:34.864Z,59.63
2016-09-19T01:55:45.145Z,59.72
2016-09-19T01:56:55.129Z,59.44
2016-09-19T01:58:05.421Z,59.63
2016-09-19T01:59:15.403Z,59.53
2016-09-19T02:00:25.382Z,59.63
2016-09-19T02:01:35.064Z,59.63
2016-09-19T02:02:45.351Z,59.44
2016-09-19T02:03:55.343Z,59.72
2016-09-19T02:05:05.320Z,59.53
2016-09-19T02:06:15.610Z,59.24
2016-09-19T02:07:25.888Z,59.63
2016-09-19T02:08:36.189Z,59.92
2016-09-19T02:09:46.165Z,59.82
2016-09-19T02:10:56.457Z,60.11
2016-09-19T02:12:06.466Z,60.01
2016-09-19T02:13:16.456Z,59.92
2016-09-19T02:14:26.443Z,60.21
2016-09-19T02:15:36.415Z,59.82
2016-09-19T02:16:46.387Z,60.01
2016-09-19T02:17:56.366Z,59.92
2016-09-19T02:19:06.336Z,59.92
2016-09-19T02:20:16.351Z,60.01
2016-09-19T02:21:26.329Z,59.24
2016-09-19T02:22:36.621Z,59.63
2016-09-19T02:23:46.913Z,59.63
2016-09-19T02:24:56.902Z,59.63
2016-09-19T02:26:06.882Z,59.53
2016-09-19T02:27:16.566Z,59.82
2016-09-19T02:28:26.554Z,59.15
2016-09-19T02:29:36.860Z,59.82
2016-09-19T02:30:47.134Z,59.72
2016-09-19T02:31:57.108Z,59.82
2016-09-19T02:33:06.789Z,59.92
2016-09-19T02:34:16.771Z,60.01
2016-09-19T02:35:26.753Z,59.82
2016-09-19T02:36:37.030Z,59.72
2016-09-19T02:37:47.012Z,59.63
2016-09-19T02:38:57.302Z,59.72
2016-09-19T02:40:07.583Z,59.72
2016-09-19T02:41:17.582Z,59.53
2016-09-19T02:42:27.869Z,59.72
2016-09-19T02:43:37.855Z,59.34
2016-09-19T02:44:47.832Z,59.15
2016-09-19T02:45:58.123Z,60.01
2016-09-19T02:47:07.792Z,60.01
2016-09-19T02:48:17.776Z,60.11
2016-09-19T02:49:28.058Z,60.01
2016-09-19T02:50:38.343Z,59.92
2016-09-19T02:51:48.322Z,59.72
2016-09-19T02:52:57.997Z,59.72
2016-09-19T02:54:07.978Z,59.72
2016-09-19T02:55:18.262Z,60.01
2016-09-19T02:56:28.250Z,59.72
2016-09-19T02:57:38.536Z,60.01
2016-09-19T02:58:48.507Z,60.01
2016-09-19T02:59:58.487Z,59.92
2016-09-19T03:32:28.484Z,57.41
2016-09-19T03:33:38.745Z,58.27
2016-09-19T03:34:49.006Z,59.04
2016-09-19T03:35:59.283Z,59.8
2016-09-19T03:37:09.568Z,59.8
2016-09-19T03:38:19.249Z,60.19
2016-09-19T03:39:29.231Z,60.86
2016-09-19T03:40:39.517Z,60.41
2016-09-19T03:41:49.790Z,60.99
2016-09-19T03:43:00.067Z,60.79
2016-09-19T03:44:10.352Z,60.79
2016-09-19T03:45:20.634Z,60.79
2016-09-19T03:46:30.628Z,60.82
2016-09-19T03:47:40.003Z,60.63
2016-09-19T03:48:50.029Z,60.92
2016-09-19T03:50:00.328Z,60.35
2016-09-19T03:51:10.608Z,60.35
2016-09-19T03:52:20.585Z,60.66
2016-09-19T03:53:30.576Z,60.57
2016-09-19T03:54:40.855Z,60.57
2016-09-19T03:55:50.839Z,60.75
2016-09-19T03:57:01.118Z,60.38
2016-09-19T03:58:11.102Z,60.18
2016-09-19T03:59:20.784Z,59.89
2016-09-19T04:00:30.774Z,59.99
2016-09-19T04:01:41.064Z,60.57
2016-09-19T04:02:51.349Z,60.5
2016-09-19T04:04:01.624Z,60.31
2016-09-19T04:05:11.912Z,60.21
2016-09-19T04:06:21.260Z,60.31
2016-09-19T04:07:31.561Z,60.11
2016-09-19T04:08:41.839Z,60.4
2016-09-19T04:09:52.119Z,60.11
2016-09-19T04:11:02.398Z,60.11
2016-09-19T04:12:12.373Z,60.31
2016-09-19T04:13:22.650Z,60.21
2016-09-19T04:14:32.633Z,60.4
2016-09-19T04:15:42.614Z,60.31
2016-09-19T04:16:52.596Z,60.31
2016-09-19T04:18:02.885Z,60.21
2016-09-19T04:19:12.874Z,60.21
2016-09-19T04:20:22.845Z,60.21
2016-09-19T04:21:32.827Z,60.21
2016-09-19T04:22:42.489Z,60.11
2016-09-19T04:23:52.770Z,60.21
2016-09-19T04:25:02.747Z,60.31
2016-09-19T04:26:12.414Z,60.02
2016-09-19T04:27:22.086Z,60.02
2016-09-19T04:28:32.057Z,60.21
2016-09-19T04:29:42.340Z,60.11
2016-09-19T04:30:52.624Z,60.11
2016-09-19T04:32:02.317Z,60.11
2016-09-19T04:33:12.298Z,60.11
2016-09-19T04:34:22.286Z,60.11
2016-09-19T04:35:32.583Z,60.11
2016-09-19T04:36:42.863Z,60.21
2016-09-19T04:37:53.155Z,60.02
2016-09-19T04:39:02.829Z,60.31
2016-09-19T04:40:12.809Z,60.21
2016-09-19T04:41:22.781Z,60.11
2016-09-19T04:42:33.088Z,60.11
2016-09-19T04:43:43.375Z,60.4
2016-09-19T04:44:53.350Z,60.11
2016-09-19T04:46:03.327Z,60.11
2016-09-19T04:47:13.010Z,60.11
2016-09-19T04:48:23.284Z,60.4
2016-09-19T04:49:33.323Z,60.4
2016-09-19T04:50:43.627Z,60.6
2016-09-19T04:51:53.911Z,59.83
2016-09-19T04:53:03.600Z,60.31
2016-09-19T04:54:13.885Z,59.92
2016-09-19T04:55:23.870Z,60.4
2016-09-19T04:56:33.857Z,59.92
2016-09-19T04:57:43.834Z,59.92
2016-09-19T04:58:54.116Z,59.92
2016-09-19T05:00:04.393Z,59.83
2016-09-19T05:01:14.375Z,60.11
2016-09-19T05:02:24.662Z,60.02
2016-09-19T05:03:34.662Z,59.73
2016-09-19T05:04:44.934Z,59.73
2016-09-19T05:05:54.607Z,59.83
2016-09-19T05:07:04.582Z,59.92
2016-09-19T05:08:14.878Z,59.92
2016-09-19T05:09:24.847Z,59.92
2016-09-19T05:10:35.137Z,59.83
2016-09-19T05:11:45.450Z,59.92
2016-09-19T05:12:55.425Z,59.92
2016-09-19T05:14:05.434Z,59.92
2016-09-19T05:15:15.739Z,59.54
2016-09-19T05:16:26.016Z,59.92
2016-09-19T05:17:36.293Z,59.92
2016-09-19T05:18:45.971Z,60.02
2016-09-19T05:19:56.265Z,59.64
2016-09-19T05:21:06.248Z,60.11
2016-09-19T05:22:16.250Z,59.83
2016-09-19T05:23:26.241Z,59.73
2016-09-19T05:24:36.515Z,59.83
2016-09-19T05:25:46.195Z,59.83
2016-09-19T05:26:55.861Z,59.83
2016-09-19T05:28:05.839Z,59.92
2016-09-19T05:29:16.144Z,59.83
2016-09-19T05:30:26.136Z,59.92
2016-09-19T05:31:36.134Z,59.92
2016-09-19T05:32:46.131Z,59.44
2016-09-19T05:33:56.427Z,59.73
2016-09-19T05:35:05.789Z,59.25
2016-09-19T05:36:15.780Z,59.57
2016-09-19T05:37:25.762Z,59.47
2016-09-19T05:38:36.052Z,59.57
2016-09-19T05:39:45.740Z,59.57
2016-09-19T05:40:56.024Z,59.38
2016-09-19T05:42:05.719Z,59.28
2016-09-19T05:43:15.083Z,59.76
2016-09-19T05:44:25.389Z,59.28
2016-09-19T05:45:35.086Z,59.38
2016-09-19T05:46:45.363Z,59.38
2016-09-19T05:47:55.649Z,59.41
2016-09-19T05:49:05.640Z,59.22
2016-09-19T05:50:15.026Z,59.31
2016-09-19T05:51:25.007Z,59.02
2016-09-19T05:52:34.370Z,59.41
2016-09-19T05:53:44.050Z,59.22
2016-09-19T05:54:54.339Z,58.92
2016-09-19T05:56:04.313Z,59.6
2016-09-19T05:57:14.292Z,59.22
2016-09-19T05:58:24.283Z,59.02
2016-09-19T05:59:34.559Z,59.12
2016-09-19T06:00:44.226Z,58.92
2016-09-19T06:01:54.204Z,58.86
2016-09-19T06:03:04.176Z,58.86
2016-09-19T06:04:14.471Z,58.57
2016-09-19T06:05:24.456Z,58.67
2016-09-19T06:06:34.436Z,58.67
2016-09-19T06:07:44.400Z,58.89
2016-09-19T06:08:54.387Z,58.5
2016-09-19T06:10:04.662Z,58.12
2016-09-19T06:11:14.951Z,58.02
2016-09-19T06:12:24.943Z,57.64
2016-09-19T06:13:34.924Z,57.67
2016-09-19T06:14:45.219Z,58.15
2016-09-19T06:15:55.219Z,58.05
2016-09-19T06:17:05.498Z,57.79
2016-09-19T06:18:15.482Z,58.17
2016-09-19T06:19:25.464Z,57.79
2016-09-19T06:20:35.453Z,58.08
2016-09-19T06:21:45.438Z,58.08
2016-09-19T06:22:55.419Z,58.08
2016-09-19T06:24:05.076Z,58.08
2016-09-19T06:25:15.361Z,57.79
2016-09-19T06:26:25.657Z,58.08
2016-09-19T06:27:35.936Z,58.08
2016-09-19T06:28:45.927Z,57.62
2016-09-19T06:29:55.908Z,58.01
2016-09-19T06:31:05.575Z,57.34
2016-09-19T06:32:15.862Z,57.43
2016-09-19T06:33:25.527Z,57.82
2016-09-19T06:34:35.514Z,57.75
2016-09-19T06:35:45.181Z,57.62
2016-09-19T06:36:54.858Z,57.53
2016-09-19T06:38:05.149Z,58.01
2016-09-19T06:39:15.142Z,58.14
2016-09-19T06:40:24.509Z,57.92
2016-09-19T06:41:34.801Z,58.11
2016-09-19T06:42:45.103Z,57.85
2016-09-19T06:43:55.098Z,58.14
2016-09-19T06:45:05.399Z,57.85
2016-09-19T06:46:15.416Z,57.85
2016-09-19T06:47:25.707Z,57.94
2016-09-19T06:48:36.004Z,58.23
2016-09-19T06:49:45.681Z,58.14
2016-09-19T06:50:55.967Z,58.14
2016-09-19T06:52:05.637Z,58.23
2016-09-19T06:53:15.612Z,57.97
2016-09-19T06:54:25.598Z,58.42
2016-09-19T06:55:34.966Z,58.14
2016-09-19T06:56:44.952Z,58.42
2016-09-19T06:57:54.944Z,58.59
2016-09-19T06:59:04.615Z,58.97
2016-09-19T07:00:14.292Z,58.78
2016-09-19T07:01:24.288Z,58.69
2016-09-19T07:02:34.276Z,58.78
2016-09-19T07:03:43.961Z,58.3
2016-09-19T07:04:54.259Z,58.11
2016-09-19T07:06:04.553Z,57.92
2016-09-19T07:07:14.882Z,57.75
2016-09-19T07:08:25.189Z,57.75
2016-09-19T07:09:35.168Z,57.75
2016-09-19T07:10:45.155Z,57.75
2016-09-19T07:11:55.137Z,58.14
2016-09-19T07:13:05.429Z,58.14
2016-09-19T07:14:15.411Z,58.3
2016-09-19T07:15:25.383Z,58.11
2016-09-19T07:16:35.081Z,58.23
2016-09-19T07:17:45.061Z,57.56
2016-09-19T07:18:55.042Z,57.75
2016-09-19T07:20:05.025Z,57.68
2016-09-19T07:21:15.339Z,57.49
2016-09-19T07:22:25.314Z,57.29
2016-09-19T07:23:35.300Z,57.1
2016-09-19T07:24:45.604Z,57.42
2016-09-19T07:25:55.602Z,57.42
2016-09-19T07:27:05.890Z,57.42
2016-09-19T07:28:16.185Z,57.71
2016-09-19T07:29:26.467Z,57.39
2016-09-19T07:30:36.443Z,58.07
2016-09-19T07:31:46.741Z,58.17
2016-09-19T07:32:56.722Z,57.68
2016-09-19T07:34:06.700Z,57.78
2016-09-19T07:35:16.697Z,58.07
2016-09-19T07:36:26.990Z,57.97
2016-09-19T07:37:37.294Z,57.78
2016-09-19T07:38:47.575Z,57.97
2016-09-19T07:39:57.264Z,57.97
2016-09-19T07:41:06.933Z,57.87
2016-09-19T07:42:16.925Z,58.36
2016-09-19T07:43:27.223Z,57.78
2016-09-19T07:44:37.214Z,57.59
2016-09-19T07:45:47.511Z,57.23
2016-09-19T07:46:57.815Z,56.94
2016-09-19T07:48:07.174Z,56.77
2016-09-19T07:49:17.163Z,56.8
2016-09-19T07:50:26.543Z,56.32
2016-09-19T07:51:36.846Z,56.05
2016-09-19T07:52:47.139Z,56.05
2016-09-19T07:53:57.159Z,56.83
2016-09-19T07:55:07.164Z,56.93
2016-09-19T07:56:17.146Z,57.6
2016-09-19T07:57:27.467Z,57.77
2016-09-19T07:58:37.762Z,58.51
2016-09-19T07:59:47.448Z,58.87
2016-09-19T08:00:57.734Z,58.87
2016-09-19T08:02:07.722Z,59.06
2016-09-19T08:03:18.021Z,59.03
2016-09-19T08:04:28.317Z,58.94
2016-09-19T08:05:38.004Z,58.1
2016-09-19T08:06:47.991Z,57.71
2016-09-19T08:07:57.662Z,57.54
2016-09-19T08:09:07.962Z,56.8
2016-09-19T08:10:18.255Z,56.8
2016-09-19T08:11:27.933Z,55.96
2016-09-19T08:12:38.229Z,55.51
2016-09-19T08:13:48.248Z,55.34
2016-09-19T08:14:58.542Z,55.76
2016-09-19T08:16:08.534Z,56.98
2016-09-19T08:17:18.511Z,56.98
2016-09-19T08:18:28.792Z,56.76
2016-09-19T08:19:38.772Z,57.63
2016-09-19T08:20:48.450Z,57.44
2016-09-19T08:21:58.755Z,57.79
2016-09-19T08:23:08.424Z,57.79
2016-09-19T08:24:17.786Z,57.41
2016-09-19T08:25:27.768Z,57.24
2016-09-19T08:26:38.059Z,56.86
2016-09-19T08:27:48.345Z,56.88
2016-09-19T08:28:58.646Z,56.3
2016-09-19T08:30:08.939Z,56.14
2016-09-19T08:31:18.915Z,56.72
2016-09-19T08:32:28.582Z,56.62
2016-09-19T08:33:37.974Z,56.82
2016-09-19T08:34:47.966Z,56.34
2016-09-19T08:35:58.249Z,56.14
2016-09-19T08:37:08.253Z,55.88
2016-09-19T08:38:18.259Z,55.49
2016-09-19T08:39:28.547Z,55.32
2016-09-19T08:40:38.555Z,54.67
2016-09-19T08:41:48.551Z,54.5
2016-09-19T08:42:58.539Z,53.56
2016-09-19T08:44:08.520Z,53.61
2016-09-19T08:45:18.511Z,54.39
2016-09-19T08:46:28.521Z,54.66
2016-09-19T08:47:38.820Z,54.27
2016-09-19T08:48:49.116Z,54.36
2016-09-19T08:49:59.418Z,54.29
2016-09-19T08:51:09.081Z,54.39
2016-09-19T08:52:18.788Z,54.42
2016-09-19T08:53:28.790Z,54.42
2016-09-19T08:54:38.470Z,54.52
2016-09-19T08:55:48.781Z,54.68
2016-09-19T08:56:59.074Z,54.71
2016-09-19T08:58:09.404Z,55.17
2016-09-19T08:59:19.401Z,55.36
2016-09-19T09:00:29.098Z,55.43
2016-09-19T09:01:39.386Z,55.27
2016-09-19T09:02:49.367Z,54.88
2016-09-19T09:03:59.044Z,54.22
2016-09-19T09:05:09.331Z,54.25
2016-09-19T09:06:20.037Z,53.86
2016-09-19T09:07:30.327Z,53.69
2016-09-19T09:08:40.330Z,54.01
2016-09-19T09:09:50.333Z,53.72
2016-09-19T09:11:00.011Z,54.4
2016-09-19T09:12:09.700Z,53.81
2016-09-19T09:13:19.378Z,53.81
2016-09-19T09:14:29.671Z,53.81
2016-09-19T09:15:39.972Z,53.75
2016-09-19T09:16:49.973Z,54.21
2016-09-19T09:17:59.969Z,54.5
2016-09-19T09:19:09.336Z,54.54
2016-09-19T09:20:19.319Z,54.83
2016-09-19T09:21:29.303Z,54.93
2016-09-19T09:22:39.293Z,55.29
2016-09-19T09:23:49.286Z,55.61
2016-09-19T09:24:58.964Z,54.8
2016-09-19T09:26:08.952Z,54.44
2016-09-19T09:27:19.239Z,54.35
2016-09-19T09:28:29.216Z,54.28
2016-09-19T09:29:39.207Z,54.35
2016-09-19T09:30:49.199Z,54.54
2016-09-19T09:31:59.506Z,53.81
2016-09-19T09:33:09.804Z,53.42
2016-09-19T09:34:19.777Z,53.55
2016-09-19T09:35:29.792Z,54.6
2016-09-19T09:36:40.077Z,54.21
2016-09-19T09:37:50.069Z,54.11
2016-09-19T09:39:00.364Z,54.01
2016-09-19T09:40:10.662Z,54.13
2016-09-19T09:41:20.654Z,54.4
2016-09-19T09:42:30.657Z,55.15
2016-09-19T09:43:40.643Z,54.83
2016-09-19T09:44:50.637Z,54.08
2016-09-19T09:46:00.953Z,53.62
2016-09-19T09:47:10.316Z,54.01
2016-09-19T09:48:19.985Z,54.6
2016-09-19T09:49:29.672Z,54.96
2016-09-19T09:50:39.895Z,55.51
2016-09-19T09:51:50.209Z,55.29
2016-09-19T09:53:00.500Z,55.39
2016-09-19T09:54:10.492Z,55.58
2016-09-19T09:55:20.125Z,54.32
2016-09-19T09:56:30.435Z,53.89
2016-09-19T09:57:40.426Z,54.5
2016-09-19T09:58:50.411Z,54.57
2016-09-19T10:00:00.713Z,55.41
2016-09-19T10:01:11.009Z,55.49
2016-09-19T10:02:21.312Z,56.04
2016-09-19T10:03:30.981Z,56.14
2016-09-19T10:04:40.349Z,55.82
2016-09-19T10:05:50.032Z,56.34
2016-09-19T10:07:00.013Z,56.4
2016-09-19T10:08:09.704Z,56.6
2016-09-19T10:09:19.700Z,55.73
2016-09-19T10:10:28.458Z,56.01
2016-09-19T10:11:38.440Z,55.92
2016-09-19T10:12:47.812Z,55.82
2016-09-19T10:13:58.095Z,56.28
2016-09-19T10:15:08.400Z,56.28
2016-09-19T10:16:18.064Z,55.89
2016-09-19T10:17:28.069Z,56.18
2016-09-19T10:18:38.043Z,56.28
2016-09-19T10:19:48.043Z,57.03
2016-09-19T10:20:58.039Z,56.9
2016-09-19T10:22:07.710Z,57.45
2016-09-19T10:23:17.694Z,58.01
2016-09-19T10:24:27.374Z,57.81
2016-09-19T10:25:37.373Z,58.3
2016-09-19T10:26:47.058Z,58.17
2016-09-19T10:27:57.359Z,57.88
2016-09-19T10:29:07.357Z,57.79
2016-09-19T10:30:17.353Z,57.69
2016-09-19T10:31:27.045Z,57.3
2016-09-19T10:32:37.035Z,56.72
2016-09-19T10:33:46.721Z,57.04
2016-09-19T10:34:56.706Z,56.07
2016-09-19T10:36:06.701Z,55.71
2016-09-19T10:37:16.377Z,55.81
2016-09-19T10:38:26.055Z,55.64
2016-09-19T10:39:36.357Z,55.64
2016-09-19T10:40:46.047Z,55.9
2016-09-19T10:41:56.335Z,55.83
2016-09-19T10:43:06.620Z,55.35
2016-09-19T10:44:16.305Z,55.74
2016-09-19T10:45:26.618Z,55.74
2016-09-19T10:46:36.927Z,56.13
2016-09-19T10:47:46.913Z,56.23
2016-09-19T10:48:56.912Z,55.83
2016-09-19T10:50:07.206Z,56.32
2016-09-19T10:51:17.213Z,56.97
2016-09-19T10:52:27.505Z,57.17
2016-09-19T10:53:37.817Z,56.46
2016-09-19T10:54:47.494Z,56.85
2016-09-19T10:55:57.465Z,57.04
2016-09-19T10:57:07.751Z,56.75
2016-09-19T10:58:17.732Z,56.16
2016-09-19T10:59:27.112Z,56.56
2016-09-19T11:00:37.402Z,57.14
2016-09-19T11:01:46.783Z,56.16
2016-09-19T11:02:57.084Z,56.46
2016-09-19T11:04:06.780Z,56.1
2016-09-19T11:05:16.481Z,55.9
2016-09-19T11:06:26.789Z,54.77
2016-09-19T11:07:37.101Z,54.21
2016-09-19T11:08:47.409Z,53.59
2016-09-19T11:09:57.423Z,53.71
2016-09-19T11:11:07.737Z,53.64
2016-09-19T11:12:17.112Z,53.25
2016-09-19T11:13:27.430Z,54.05
2016-09-19T11:14:37.130Z,53.64
2016-09-19T11:15:47.118Z,54.22
2016-09-19T11:16:57.414Z,54.03
2016-09-19T11:18:07.404Z,53.74
2016-09-19T11:19:17.388Z,53.67
2016-09-19T11:20:27.690Z,53.4
2016-09-19T11:21:37.371Z,53.2
2016-09-19T11:22:47.355Z,53.23
2016-09-19T11:23:57.044Z,53.42
2016-09-19T11:25:06.724Z,53.62
2016-09-19T11:26:17.031Z,54.18
2016-09-19T11:27:26.721Z,54.47
2016-09-19T11:28:36.720Z,54.57
2016-09-19T11:29:47.036Z,54.08
2016-09-19T11:30:57.036Z,54.21
2016-09-19T11:32:07.042Z,54.01
2016-09-19T11:33:17.043Z,53.16
2016-09-19T11:34:27.354Z,52.14
2016-09-19T11:35:37.345Z,52.36
2016-09-19T11:36:47.027Z,52.58
2016-09-19T11:37:57.345Z,52.85
2016-09-19T11:39:07.366Z,52.85
2016-09-19T11:40:17.682Z,53.11
2016-09-19T11:41:27.658Z,52.85
2016-09-19T11:42:37.642Z,53.5
2016-09-19T11:43:47.622Z,54.19
2016-09-19T11:44:57.921Z,53.7
2016-09-19T11:46:08.221Z,53.99
2016-09-19T11:47:17.911Z,54.19
2016-09-19T11:48:27.294Z,54.36
2016-09-19T11:49:36.905Z,54.62
2016-09-19T11:50:47.222Z,54.13
2016-09-19T11:51:57.199Z,54.62
2016-09-19T11:53:07.508Z,54.62
2016-09-19T11:54:17.527Z,54.03
2016-09-19T11:55:27.224Z,53.77
2016-09-19T11:56:37.216Z,53.67
2016-09-19T11:57:47.527Z,54.46
2016-09-19T11:58:57.831Z,54.36
2016-09-19T12:00:08.114Z,54.16
2016-09-19T12:01:17.803Z,54.55
2016-09-19T12:02:27.821Z,55.13
2016-09-19T12:03:37.811Z,55.86
2016-09-19T12:04:47.797Z,56.32
2016-09-19T12:05:57.493Z,55.61
2016-09-19T12:07:07.483Z,55.35
2016-09-19T12:08:17.468Z,55.64
2016-09-19T12:09:27.450Z,55.64
2016-09-19T12:10:37.440Z,54.96
2016-09-19T12:11:47.422Z,54.18
2016-09-19T12:12:57.424Z,54.4
2016-09-19T12:14:07.413Z,54.4
2016-09-19T12:15:17.398Z,54.33
2016-09-19T12:16:27.384Z,55.01
2016-09-19T12:17:37.692Z,54.99
2016-09-19T12:18:47.668Z,54.69
2016-09-19T12:19:57.669Z,54.69
2016-09-19T12:21:07.671Z,54.72
2016-09-19T12:22:17.979Z,54.23
2016-09-19T12:23:27.972Z,54.43
2016-09-19T12:24:38.272Z,54.13
2016-09-19T12:25:48.289Z,53.85
2016-09-19T12:26:58.268Z,53.97
2016-09-19T12:28:07.647Z,54.36
2016-09-19T12:29:17.320Z,54.52
2016-09-19T12:30:27.319Z,54.23
2016-09-19T12:31:37.615Z,54.62
2016-09-19T12:32:47.933Z,54.72
2016-09-19T12:33:57.927Z,54.62
2016-09-19T12:35:07.917Z,54.72
2016-09-19T12:36:17.936Z,54.23
2016-09-19T12:37:27.930Z,54.72
2016-09-19T12:38:38.231Z,54.43
2016-09-19T12:39:48.525Z,54.36
2016-09-19T12:40:58.508Z,53.87
2016-09-19T12:42:08.798Z,54.19
2016-09-19T12:43:18.489Z,53.31
2016-09-19T12:44:28.481Z,54.02
2016-09-19T12:45:38.471Z,53.89
2016-09-19T12:46:48.804Z,53.8
2016-09-19T12:47:58.791Z,54.5
2016-09-19T12:49:09.083Z,54.75
2016-09-19T12:50:18.763Z,54.43
2016-09-19T12:51:29.061Z,54.16
2016-09-19T12:52:38.741Z,53.7
2016-09-19T12:53:48.754Z,54.58
2016-09-19T12:54:58.773Z,54.28
2016-09-19T12:56:09.092Z,54.94
2016-09-19T12:57:19.074Z,55.72
2016-09-19T12:58:29.072Z,55.6
2016-09-19T12:59:39.363Z,55.79
2016-09-19T13:00:49.344Z,56.05
2016-09-19T13:01:59.632Z,55.66
2016-09-19T13:03:09.939Z,55.37
2016-09-19T13:04:19.633Z,55.08
2016-09-19T13:05:29.632Z,55.6
2016-09-19T13:06:39.638Z,55.47
2016-09-19T13:07:49.629Z,56.12
2016-09-19T13:08:59.932Z,56.29
2016-09-19T13:10:09.624Z,56.77
2016-09-19T13:11:19.935Z,57.23
2016-09-19T13:12:30.217Z,57.98
2016-09-19T13:13:40.521Z,57.86
2016-09-19T13:14:50.498Z,57.93
2016-09-19T13:16:00.798Z,58.19
2016-09-19T13:17:10.787Z,58.09
2016-09-19T13:18:20.781Z,58.36
2016-09-19T13:19:30.769Z,57.78
2016-09-19T13:20:41.093Z,57.68
2016-09-19T13:21:51.106Z,57.58
2016-09-19T13:23:01.112Z,57.87
2016-09-19T13:24:11.424Z,57.97
2016-09-19T13:25:21.425Z,57.87
2016-09-19T13:26:31.129Z,57.78
2016-09-19T13:27:41.120Z,57.55
2016-09-19T13:28:50.495Z,57.94
2016-09-19T13:30:00.792Z,57.84
2016-09-19T13:31:10.783Z,58.11
2016-09-19T13:32:20.775Z,58.11
2016-09-19T13:33:31.067Z,58.01
2016-09-19T13:34:41.069Z,58.17
2016-09-19T13:35:50.762Z,57.98
2016-09-19T13:37:01.049Z,58.34
2016-09-19T13:38:10.740Z,58.92
2016-09-19T13:39:21.029Z,58.82
2016-09-19T13:40:31.007Z,58.63
2016-09-19T13:41:41.002Z,58.8
2016-09-19T13:42:51.291Z,58.7
2016-09-19T13:44:00.977Z,58.6
2016-09-19T13:45:10.954Z,58.6
2016-09-19T13:46:20.925Z,58.57
2016-09-19T13:47:30.297Z,58.47
2016-09-19T13:48:40.588Z,58.47
2016-09-19T13:49:50.881Z,58.47
2016-09-19T13:51:00.857Z,58.18
2016-09-19T13:52:10.883Z,58.57
2016-09-19T13:53:20.882Z,57.99
2016-09-19T13:54:31.173Z,58.02
2016-09-19T13:55:41.169Z,57.73
2016-09-19T13:56:50.866Z,58.21
2016-09-19T13:58:00.857Z,58.02
2016-09-19T13:59:10.210Z,57.34
2016-09-19T14:00:19.905Z,57.34
2016-09-19T14:01:29.888Z,57.44
2016-09-19T14:02:40.185Z,57.56
2016-09-19T14:03:49.555Z,57.56
2016-09-19T14:04:59.515Z,57.86
2016-09-19T14:06:09.508Z,57.82
2016-09-19T14:07:19.185Z,58.02
2016-09-19T14:08:29.491Z,57.82
2016-09-19T14:09:39.480Z,58.12
2016-09-19T14:10:49.775Z,58.02
2016-09-19T14:11:59.761Z,57.44
2016-09-19T14:13:09.458Z,57.46
2016-09-19T14:14:19.755Z,57.66
2016-09-19T14:15:29.744Z,57.46
2016-09-19T14:16:39.104Z,57.46
2016-09-19T14:17:49.086Z,57.37
2016-09-19T14:18:59.080Z,57.37
2016-09-19T14:20:09.078Z,57.56
2016-09-19T14:21:19.065Z,57.37
2016-09-19T14:22:29.039Z,57.37
2016-09-19T14:23:39.044Z,57.46
2016-09-19T14:24:49.042Z,57.46
2016-09-19T14:25:59.024Z,57.76
2016-09-19T14:27:08.711Z,56.82
2016-09-19T14:28:18.711Z,56.43
2016-09-19T14:29:28.404Z,56.82
2016-09-19T14:30:38.386Z,57.23
2016-09-19T14:31:48.741Z,57.14
2016-09-19T14:32:59.032Z,57.14
2016-09-19T14:34:08.740Z,56.85
2016-09-19T14:35:19.043Z,56.52
2016-09-19T14:36:29.357Z,57.2
2016-09-19T14:37:38.733Z,57.59
2016-09-19T14:38:48.412Z,57.5
2016-09-19T14:39:58.710Z,57.86
2016-09-19T14:41:08.709Z,58.04
2016-09-19T14:42:19.033Z,58.04
2016-09-19T14:43:29.349Z,57.76
2016-09-19T14:44:39.651Z,57.95
2016-09-19T14:45:49.940Z,58.24
2016-09-19T14:46:59.935Z,57.95
2016-09-19T14:48:10.176Z,58.14
2016-09-19T14:49:20.093Z,57.95
2016-09-19T14:50:30.398Z,57.92
2016-09-19T14:51:40.706Z,58.21
2016-09-19T14:52:50.407Z,58.31
2016-09-19T14:53:59.788Z,57.82
2016-09-19T14:55:10.074Z,57.89
2016-09-19T14:56:20.385Z,58.37
2016-09-19T14:57:30.676Z,58.28
2016-09-19T14:58:40.985Z,58.28
2016-09-19T14:59:51.272Z,58.57
2016-09-19T15:01:01.254Z,58.28
2016-09-19T15:02:11.236Z,58.25
2016-09-19T15:03:21.228Z,58.93
2016-09-19T15:04:31.526Z,58.73
2016-09-19T15:05:41.516Z,58.73
2016-09-19T15:06:51.513Z,58.54
2016-09-19T15:08:00.880Z,58.54
2016-09-19T15:09:10.870Z,58.25
2016-09-19T15:10:20.858Z,58.35
2016-09-19T15:11:31.159Z,58.25
2016-09-19T15:12:41.467Z,57.77
2016-09-19T15:13:51.469Z,58.15
2016-09-19T15:15:01.149Z,58.15
2016-09-19T15:16:11.159Z,58.06
2016-09-19T15:17:20.518Z,58.64
2016-09-19T15:18:30.530Z,58.25
2016-09-19T15:19:39.902Z,58.8
2016-09-19T15:20:50.223Z,58.42
2016-09-19T15:22:00.535Z,59.09
2016-09-19T15:23:10.530Z,58.9
2016-09-19T15:24:20.523Z,58.87
2016-09-19T15:25:30.222Z,58.97
2016-09-19T15:26:40.519Z,59.16
2016-09-19T15:27:50.828Z,59.64
2016-09-19T15:29:00.815Z,59.64
2016-09-19T15:30:11.129Z,59.16
2016-09-19T15:31:21.116Z,58.58
2016-09-19T15:32:31.398Z,59.23
2016-09-19T15:33:41.718Z,59.32
2016-09-19T15:34:51.703Z,59.42